Time;durP1;ratioP1;P1;durP2;ratioP2;P2;SDS_P1;SDS_P2;PMS_P1;PMS_P2;Temp;Humidity;BMP_temperature;BMP_pressure;BME280_temperature;BME280_humidity;BME280_pressure;Samples;Min_cycle;Max_cycle;Signal;HPM_P1;HPM_P2
2022/08/25 00:00:48;;;;;;;9.67;4.70;;;;;;;;;;5047099;28;20203;-73
2022/08/25 00:03:57;;;;;;;11.20;4.80;;;;;;;;;;5018061;28;20184;-73
2022/08/25 00:14:56;;;;;;;11.23;4.40;;;;;;;;;;4970183;28;20700;-73
2022/08/25 00:18:25;;;;;;;12.57;4.50;;;;;;;;;;5003071;28;20194;-73
2022/08/25 00:52:39;;;;;;;13.70;6.00;;;;;;;;;;5008750;28;20191;-73
2022/08/25 00:56:22;;;;;;;13.47;5.33;;;;;;;;;;4989160;28;21089;-73
2022/08/25 01:03:26;;;;;;;12.97;5.43;;;;;;;;;;4981189;28;20188;-73
2022/08/25 01:06:50;;;;;;;13.40;5.57;;;;;;;;;;4985915;28;20544;-73
2022/08/25 01:09:50;;;;;;;12.23;4.90;;;;;;;;;;4955683;28;20205;-73
2022/08/25 01:17:08;;;;;;;11.53;5.90;;;;;;;;;;4949390;28;20234;-73
2022/08/25 01:21:07;;;;;;;11.80;5.60;;;;;;;;;;4949694;29;20201;-73
2022/08/25 01:25:00;;;;;;;11.23;5.67;;;;;;;;;;4949744;28;20227;-73
2022/08/25 01:36:15;;;;;;;11.37;6.17;;;;;;;;;;4855243;29;20276;-73
2022/08/25 01:39:41;;;;;;;15.27;5.80;;;;;;;;;;4868300;29;20315;-74
2022/08/25 01:47:37;;;;;;;12.00;5.40;;;;;;;;;;4794684;29;20267;-73
2022/08/25 01:51:12;;;;;;;10.97;5.50;;;;;;;;;;4817998;29;20186;-73
2022/08/25 01:54:57;;;;;;;11.90;5.23;;;;;;;;;;4818647;29;20231;-73
2022/08/25 02:02:17;;;;;;;13.10;5.77;;;;;;;;;;4892057;29;20300;-73
2022/08/25 02:05:45;;;;;;;7.47;5.80;;;;;;;;;;4784124;29;20218;-73
2022/08/25 02:12:56;;;;;;;14.47;6.10;;;;;;;;;;4844353;29;20277;-73
2022/08/25 02:16:49;;;;;;;12.03;6.63;;;;;;;;;;4835626;29;20221;-73
2022/08/25 02:32:39;;;;;;;11.40;6.80;;;;;;;;;;4848751;29;20212;-73
2022/08/25 02:36:31;;;;;;;13.53;6.47;;;;;;;;;;4844543;29;20200;-73
2022/08/25 02:44:10;;;;;;;10.37;5.73;;;;;;;;;;4810691;29;20233;-73
2022/08/25 02:56:33;;;;;;;14.90;7.27;;;;;;;;;;4948515;29;20232;-73
2022/08/25 03:00:38;;;;;;;8.17;6.37;;;;;;;;;;4890978;29;20263;-73
2022/08/25 03:04:40;;;;;;;12.40;8.93;;;;;;;;;;4891344;29;20194;-73
2022/08/25 03:08:12;;;;;;;18.10;9.60;;;;;;;;;;4861489;29;20573;-73
2022/08/25 03:20:18;;;;;;;15.50;8.77;;;;;;;;;;4838975;29;20560;-73
2022/08/25 03:28:32;;;;;;;17.60;9.33;;;;;;;;;;4816783;29;20195;-73
2022/08/25 03:32:30;;;;;;;13.70;8.53;;;;;;;;;;4800830;29;20193;-73
2022/08/25 03:36:41;;;;;;;14.17;8.37;;;;;;;;;;4835724;29;20223;-73
2022/08/25 03:40:17;;;;;;;16.03;8.27;;;;;;;;;;4874242;29;20375;-73
2022/08/25 03:48:07;;;;;;;15.60;8.43;;;;;;;;;;4931987;29;20309;-73
2022/08/25 03:52:11;;;;;;;12.93;7.23;;;;;;;;;;4932169;29;20290;-73
2022/08/25 04:00:08;;;;;;;12.90;6.47;;;;;;;;;;4997769;28;20238;-73
2022/08/25 04:03:42;;;;;;;12.83;6.77;;;;;;;;;;5049367;28;20240;-72
2022/08/25 04:06:30;;;;;;;13.23;6.57;;;;;;;;;;5049251;28;20198;-82
2022/08/25 04:08:57;;;;;;;13.47;6.57;;;;;;;;;;5046335;28;20210;-73
2022/08/25 04:11:24;;;;;;;10.90;6.40;;;;;;;;;;5048689;28;20275;-73
2022/08/25 04:13:51;;;;;;;13.10;6.40;;;;;;;;;;5049009;28;20285;-72
2022/08/25 04:16:19;;;;;;;10.10;6.17;;;;;;;;;;5047113;28;20724;-76
2022/08/25 04:19:06;;;;;;;9.87;6.50;;;;;;;;;;5016911;28;20839;-74
2022/08/25 04:21:33;;;;;;;12.80;6.20;;;;;;;;;;4998155;28;20284;-74
2022/08/25 04:24:22;;;;;;;13.07;7.50;;;;;;;;;;5042575;28;20293;-75
2022/08/25 04:26:50;;;;;;;11.23;6.83;;;;;;;;;;5022114;28;20211;-75
2022/08/25 04:29:18;;;;;;;12.00;7.27;;;;;;;;;;5045800;28;20190;-75
2022/08/25 04:31:49;;;;;;;11.90;6.60;;;;;;;;;;5044118;28;20191;-75
2022/08/25 04:34:17;;;;;;;10.90;6.90;;;;;;;;;;5043664;28;20194;-75
2022/08/25 04:37:01;;;;;;;14.17;6.80;;;;;;;;;;5042990;28;20205;-73
2022/08/25 04:39:29;;;;;;;13.70;6.70;;;;;;;;;;5044210;28;20230;-78
2022/08/25 04:41:56;;;;;;;12.37;7.20;;;;;;;;;;5025720;28;20195;-73
2022/08/25 04:44:22;;;;;;;14.63;7.33;;;;;;;;;;5045666;28;20222;-75
2022/08/25 04:46:49;;;;;;;11.93;6.67;;;;;;;;;;5026892;28;20704;-73
2022/08/25 04:49:17;;;;;;;13.70;7.10;;;;;;;;;;5044448;28;20179;-73
2022/08/25 04:51:44;;;;;;;14.63;6.30;;;;;;;;;;5041390;28;20201;-76
2022/08/25 04:54:12;;;;;;;12.47;6.53;;;;;;;;;;5025593;28;21147;-72
2022/08/25 04:56:57;;;;;;;12.33;6.40;;;;;;;;;;5042996;28;20175;-72
2022/08/25 04:59:25;;;;;;;15.00;6.03;;;;;;;;;;5044559;28;20214;-73
2022/08/25 05:02:10;;;;;;;10.87;6.30;;;;;;;;;;5025792;28;20178;-76
2022/08/25 05:04:37;;;;;;;12.73;6.57;;;;;;;;;;5028017;28;20222;-76
2022/08/25 05:07:03;;;;;;;12.90;6.60;;;;;;;;;;5044411;28;20207;-78
2022/08/25 05:09:30;;;;;;;15.03;6.60;;;;;;;;;;5042984;28;20209;-72
2022/08/25 05:11:59;;;;;;;10.83;6.40;;;;;;;;;;5043865;28;20187;-71
2022/08/25 05:20:50;;;;;;;12.50;6.23;;;;;;;;;;5040926;28;20974;-73
2022/08/25 05:23:17;;;;;;;13.93;6.20;;;;;;;;;;5043322;28;20234;-71
2022/08/25 05:26:20;;;;;;;9.60;6.00;;;;;;;;;;4995646;28;20365;-73
2022/08/25 05:28:48;;;;;;;13.27;6.57;;;;;;;;;;5000565;28;20212;-72
2022/08/25 05:31:15;;;;;;;13.03;6.00;;;;;;;;;;4975751;28;20200;-74
2022/08/25 05:33:43;;;;;;;12.27;6.70;;;;;;;;;;5000138;28;20276;-72
2022/08/25 05:36:10;;;;;;;12.90;6.10;;;;;;;;;;4999107;28;20763;-72
2022/08/25 05:38:38;;;;;;;14.67;6.43;;;;;;;;;;5012287;28;20192;-73
2022/08/25 05:41:05;;;;;;;11.23;6.17;;;;;;;;;;4999595;28;20192;-74
2022/08/25 05:43:32;;;;;;;13.03;6.40;;;;;;;;;;5003470;28;20202;-73
2022/08/25 05:45:58;;;;;;;16.77;6.13;;;;;;;;;;4999961;28;20208;-72
2022/08/25 05:48:25;;;;;;;16.80;5.97;;;;;;;;;;5001068;28;20203;-73
2022/08/25 05:50:57;;;;;;;11.23;6.13;;;;;;;;;;5003841;28;20212;-72
2022/08/25 05:53:24;;;;;;;14.87;6.13;;;;;;;;;;4985212;28;20608;-72
2022/08/25 05:55:52;;;;;;;10.87;5.60;;;;;;;;;;4987582;28;20188;-74
2022/08/25 05:58:19;;;;;;;16.20;6.27;;;;;;;;;;5041633;28;20372;-73
2022/08/25 06:00:46;;;;;;;14.13;6.00;;;;;;;;;;5041252;28;20216;-74
2022/08/25 06:03:13;;;;;;;12.83;5.97;;;;;;;;;;5042009;28;20241;-74
2022/08/25 06:05:40;;;;;;;12.80;6.23;;;;;;;;;;5041609;28;20199;-71
2022/08/25 06:08:07;;;;;;;15.63;5.93;;;;;;;;;;5022939;28;20266;-73
2022/08/25 06:10:35;;;;;;;17.00;6.20;;;;;;;;;;5040594;28;20226;-73
2022/08/25 06:13:03;;;;;;;12.47;6.03;;;;;;;;;;5039066;28;20197;-72
2022/08/25 06:16:04;;;;;;;11.10;5.43;;;;;;;;;;5020692;28;20553;-71
2022/08/25 06:19:07;;;;;;;13.47;5.23;;;;;;;;;;5034405;28;20327;-71
2022/08/25 06:21:34;;;;;;;10.33;5.50;;;;;;;;;;5022630;28;20206;-70
2022/08/25 06:24:01;;;;;;;10.90;5.10;;;;;;;;;;5036855;28;20211;-72
2022/08/25 06:26:28;;;;;;;10.93;5.40;;;;;;;;;;5039448;28;20218;-71
2022/08/25 06:28:55;;;;;;;14.63;5.07;;;;;;;;;;5040296;28;20222;-73
2022/08/25 06:31:23;;;;;;;9.23;5.00;;;;;;;;;;5039138;28;20202;-73
2022/08/25 06:33:50;;;;;;;10.57;4.93;;;;;;;;;;5040896;28;20215;-73
2022/08/25 06:36:18;;;;;;;11.77;4.77;;;;;;;;;;5039150;28;20202;-73
2022/08/25 06:38:45;;;;;;;15.40;5.27;;;;;;;;;;5044777;28;20566;-74
2022/08/25 06:41:37;;;;;;;10.63;4.80;;;;;;;;;;5040751;28;20625;-72
2022/08/25 06:44:26;;;;;;;11.70;4.93;;;;;;;;;;5036491;28;20256;-74
2022/08/25 06:46:53;;;;;;;11.60;4.87;;;;;;;;;;5034352;28;20198;-76
2022/08/25 06:49:20;;;;;;;13.67;5.60;;;;;;;;;;5036302;28;20199;-75
2022/08/25 06:52:05;;;;;;;14.97;5.83;;;;;;;;;;5045009;28;20167;-75
2022/08/25 06:54:35;;;;;;;10.03;5.10;;;;;;;;;;5030841;28;20226;-75
2022/08/25 06:57:02;;;;;;;14.33;5.57;;;;;;;;;;5048148;28;20293;-74
2022/08/25 06:59:29;;;;;;;11.27;5.43;;;;;;;;;;5048295;28;20264;-74
2022/08/25 07:01:58;;;;;;;15.40;5.13;;;;;;;;;;5047323;28;20278;-74
2022/08/25 07:04:25;;;;;;;10.27;4.53;;;;;;;;;;5048045;28;20216;-74
2022/08/25 07:06:51;;;;;;;14.43;5.23;;;;;;;;;;5039360;28;20637;-74
2022/08/25 07:09:18;;;;;;;15.90;5.60;;;;;;;;;;5047854;28;20197;-74
2022/08/25 07:11:45;;;;;;;12.77;5.50;;;;;;;;;;5047787;28;20270;-75
2022/08/25 07:14:15;;;;;;;10.87;4.90;;;;;;;;;;5048492;28;20604;-74
2022/08/25 07:16:42;;;;;;;13.27;5.47;;;;;;;;;;5030157;28;20218;-74
2022/08/25 07:19:15;;;;;;;13.63;5.10;;;;;;;;;;5046812;28;20235;-74
2022/08/25 07:21:44;;;;;;;10.50;4.77;;;;;;;;;;5046334;28;20732;-74
2022/08/25 07:24:12;;;;;;;12.50;5.17;;;;;;;;;;5040191;28;20229;-74
2022/08/25 07:26:40;;;;;;;11.33;4.70;;;;;;;;;;5010616;28;21005;-74
2022/08/25 07:29:14;;;;;;;7.37;4.70;;;;;;;;;;5048599;28;20194;-77
2022/08/25 07:31:43;;;;;;;14.13;4.73;;;;;;;;;;5047606;28;20658;-77
2022/08/25 07:36:55;;;;;;;14.90;5.13;;;;;;;;;;5046838;28;20682;-77
2022/08/25 07:39:22;;;;;;;13.40;4.97;;;;;;;;;;5046476;28;20213;-76
2022/08/25 07:41:50;;;;;;;13.83;5.10;;;;;;;;;;5046685;28;20195;-77
2022/08/25 07:44:18;;;;;;;12.50;5.30;;;;;;;;;;5030621;28;20248;-77
2022/08/25 07:46:45;;;;;;;14.30;5.47;;;;;;;;;;5048051;28;20248;-76
2022/08/25 07:49:12;;;;;;;14.63;5.40;;;;;;;;;;5048063;28;20259;-74
2022/08/25 07:51:43;;;;;;;17.07;5.33;;;;;;;;;;5028942;28;20260;-73
2022/08/25 07:54:30;;;;;;;16.47;5.50;;;;;;;;;;5037360;28;20211;-74
2022/08/25 07:57:03;;;;;;;14.67;6.00;;;;;;;;;;5038987;28;20352;-78
2022/08/25 07:59:31;;;;;;;17.60;5.53;;;;;;;;;;5037698;28;21187;-76
2022/08/25 08:02:08;;;;;;;11.77;5.23;;;;;;;;;;5038206;28;20653;-75
2022/08/25 08:04:53;;;;;;;11.23;4.90;;;;;;;;;;5028283;28;20197;-78
2022/08/25 08:07:23;;;;;;;13.43;5.20;;;;;;;;;;5039190;28;20205;-73
2022/08/25 08:10:09;;;;;;;11.63;4.70;;;;;;;;;;5040111;28;20284;-73
2022/08/25 08:12:56;;;;;;;9.80;5.47;;;;;;;;;;5038560;28;20291;-74
2022/08/25 08:15:23;;;;;;;11.33;5.80;;;;;;;;;;5039780;28;20237;-78
2022/08/25 08:17:55;;;;;;;13.60;6.00;;;;;;;;;;5039940;28;20229;-71
2022/08/25 08:20:23;;;;;;;13.53;5.33;;;;;;;;;;5039086;28;20296;-73
2022/08/25 08:22:52;;;;;;;11.87;6.03;;;;;;;;;;5023549;28;20225;-75
2022/08/25 08:25:24;;;;;;;14.77;6.00;;;;;;;;;;5042694;28;20195;-72
2022/08/25 08:28:08;;;;;;;14.43;5.90;;;;;;;;;;5042251;28;20168;-73
2022/08/25 08:30:36;;;;;;;18.70;6.37;;;;;;;;;;5044344;28;20201;-73
2022/08/25 08:33:04;;;;;;;13.80;6.00;;;;;;;;;;5043549;28;20233;-74
2022/08/25 08:35:37;;;;;;;14.47;6.03;;;;;;;;;;5041730;28;20203;-70
2022/08/25 08:38:04;;;;;;;14.67;6.17;;;;;;;;;;5042620;28;20264;-71
2022/08/25 08:42:15;;;;;;;18.80;6.77;;;;;;;;;;5027404;28;20215;-69
2022/08/25 08:44:06;;;;;;;14.93;6.10;;;;;;;;;;5045757;28;20185;-69
2022/08/25 08:46:59;;;;;;;11.47;6.40;;;;;;;;;;5043524;28;20203;-72
2022/08/25 08:50:02;;;;;;;11.77;6.57;;;;;;;;;;5044633;28;20179;-70
2022/08/25 08:52:43;;;;;;;12.33;6.70;;;;;;;;;;5041574;28;20670;-70
2022/08/25 08:55:20;;;;;;;14.97;7.13;;;;;;;;;;5026913;28;20227;-70
2022/08/25 08:58:17;;;;;;;13.70;6.73;;;;;;;;;;5044514;28;20230;-72
2022/08/25 09:01:17;;;;;;;14.27;7.50;;;;;;;;;;5035486;28;20312;-70
2022/08/25 09:03:51;;;;;;;11.90;6.73;;;;;;;;;;5043668;28;20558;-70
2022/08/25 09:06:43;;;;;;;14.53;7.50;;;;;;;;;;5044384;28;20191;-71
2022/08/25 09:09:18;;;;;;;21.47;9.57;;;;;;;;;;5011325;28;20207;-72
2022/08/25 09:12:06;;;;;;;16.87;9.13;;;;;;;;;;5042145;28;20186;-72
2022/08/25 09:14:43;;;;;;;21.90;9.97;;;;;;;;;;5031624;28;20207;-68
2022/08/25 09:17:17;;;;;;;19.00;11.13;;;;;;;;;;5026877;28;20206;-72
2022/08/25 09:20:28;;;;;;;21.97;11.33;;;;;;;;;;5017428;28;20231;-71
2022/08/25 09:23:31;;;;;;;23.10;11.37;;;;;;;;;;5043841;28;20179;-70
2022/08/25 09:26:16;;;;;;;19.77;11.10;;;;;;;;;;5042085;28;20218;-69
2022/08/25 09:29:16;;;;;;;20.07;10.70;;;;;;;;;;5042475;28;20185;-70
2022/08/25 09:31:44;;;;;;;17.17;11.03;;;;;;;;;;5002810;28;20652;-73
2022/08/25 09:34:15;;;;;;;15.70;11.37;;;;;;;;;;5037669;28;20198;-74
2022/08/25 09:36:44;;;;;;;20.70;11.10;;;;;;;;;;5032498;28;20186;-74
2022/08/25 09:39:13;;;;;;;19.63;11.10;;;;;;;;;;5027491;28;20222;-75
2022/08/25 09:42:01;;;;;;;18.73;10.37;;;;;;;;;;5035221;28;20263;-74
2022/08/25 09:44:42;;;;;;;20.10;11.97;;;;;;;;;;5027860;28;20627;-75
2022/08/25 09:47:12;;;;;;;26.67;12.43;;;;;;;;;;5019850;28;20687;-69
2022/08/25 09:49:40;;;;;;;23.53;12.03;;;;;;;;;;5050790;28;20202;-76
2022/08/25 09:52:16;;;;;;;21.53;13.00;;;;;;;;;;5045505;28;20191;-80
2022/08/25 09:54:43;;;;;;;22.77;12.73;;;;;;;;;;5035271;28;20904;-82
2022/08/25 09:57:49;;;;;;;20.53;12.70;;;;;;;;;;5027314;28;20206;-83
2022/08/25 10:00:23;;;;;;;23.57;12.43;;;;;;;;;;4975802;28;20295;-82
2022/08/25 10:03:14;;;;;;;20.77;11.93;;;;;;;;;;5020950;28;20558;-81
2022/08/25 10:05:53;;;;;;;20.97;12.37;;;;;;;;;;5042275;28;20203;-81
2022/08/25 10:08:29;;;;;;;21.10;11.93;;;;;;;;;;5043135;28;20197;-81
2022/08/25 10:10:56;;;;;;;19.80;12.33;;;;;;;;;;5030671;28;20195;-82
2022/08/25 10:13:31;;;;;;;23.23;13.33;;;;;;;;;;5030477;28;20187;-82
2022/08/25 10:16:25;;;;;;;22.40;13.17;;;;;;;;;;5029877;28;20198;-82
2022/08/25 10:19:00;;;;;;;24.10;13.00;;;;;;;;;;5019407;28;20240;-82
2022/08/25 10:21:28;;;;;;;22.30;12.97;;;;;;;;;;5047169;28;20303;-82
2022/08/25 10:23:55;;;;;;;26.03;13.40;;;;;;;;;;5044054;28;20227;-76
2022/08/25 10:26:27;;;;;;;22.00;12.67;;;;;;;;;;5025638;28;20189;-78
2022/08/25 10:29:05;;;;;;;31.53;13.80;;;;;;;;;;5012211;28;20673;-79
2022/08/25 10:31:37;;;;;;;22.90;13.97;;;;;;;;;;5009269;28;20198;-78
2022/08/25 10:34:25;;;;;;;24.60;13.60;;;;;;;;;;5026192;28;20654;-77
2022/08/25 10:37:15;;;;;;;28.43;14.73;;;;;;;;;;5039172;28;20273;-77
2022/08/25 10:40:01;;;;;;;29.37;13.27;;;;;;;;;;5040379;28;20282;-76
2022/08/25 10:42:39;;;;;;;27.77;12.87;;;;;;;;;;5038606;28;20281;-75
2022/08/25 10:48:37;;;;;;;25.03;12.67;;;;;;;;;;5027139;28;20200;-77
2022/08/25 10:54:39;;;;;;;26.50;13.63;;;;;;;;;;5041902;28;20655;-75
2022/08/25 10:57:17;;;;;;;27.43;12.43;;;;;;;;;;5021233;28;20596;-76
2022/08/25 11:00:00;;;;;;;30.60;12.57;;;;;;;;;;5043814;28;20269;-74
2022/08/25 11:02:37;;;;;;;24.90;11.23;;;;;;;;;;5030446;28;20240;-80
2022/08/25 11:05:07;;;;;;;25.20;11.67;;;;;;;;;;5039979;28;20606;-78
2022/08/25 11:07:36;;;;;;;23.00;11.33;;;;;;;;;;5027574;28;20877;-80
2022/08/25 11:11:04;;;;;;;29.43;10.93;;;;;;;;;;5031586;28;20276;-74
2022/08/25 11:13:50;;;;;;;25.97;11.57;;;;;;;;;;5030345;28;20195;-74
2022/08/25 11:16:19;;;;;;;23.50;10.90;;;;;;;;;;5029512;28;20639;-74
2022/08/25 11:18:53;;;;;;;22.20;10.47;;;;;;;;;;5031850;28;20198;-78
2022/08/25 11:22:08;;;;;;;24.53;11.00;;;;;;;;;;5015862;28;20232;-76
2022/08/25 11:24:55;;;;;;;16.97;9.00;;;;;;;;;;4985100;28;20318;-79
2022/08/25 11:27:27;;;;;;;20.57;9.10;;;;;;;;;;5021812;28;20410;-76
2022/08/25 11:30:01;;;;;;;19.60;9.00;;;;;;;;;;5010004;28;20204;-77
2022/08/25 11:32:34;;;;;;;19.17;8.67;;;;;;;;;;5010100;28;20199;-73
2022/08/25 11:35:44;;;;;;;23.80;8.93;;;;;;;;;;5027272;28;20334;-74
2022/08/25 11:38:27;;;;;;;21.43;9.90;;;;;;;;;;5009463;28;20207;-83
2022/08/25 11:41:10;;;;;;;17.10;7.97;;;;;;;;;;5009402;28;20916;-78
2022/08/25 11:43:52;;;;;;;24.03;8.30;;;;;;;;;;5023536;28;20195;-75
2022/08/25 11:46:38;;;;;;;21.77;7.83;;;;;;;;;;5025705;28;20753;-74
2022/08/25 11:49:11;;;;;;;20.87;8.63;;;;;;;;;;5023701;28;20183;-78
2022/08/25 11:51:42;;;;;;;20.97;8.73;;;;;;;;;;5026725;28;20199;-77
2022/08/25 11:54:09;;;;;;;23.10;8.90;;;;;;;;;;5009134;28;20195;-78
2022/08/25 11:56:40;;;;;;;21.73;8.10;;;;;;;;;;5024890;28;20187;-78
2022/08/25 11:59:07;;;;;;;20.13;7.70;;;;;;;;;;4996836;28;20625;-77
2022/08/25 12:01:43;;;;;;;15.73;7.23;;;;;;;;;;5029027;28;20917;-75
2022/08/25 12:04:29;;;;;;;23.80;7.80;;;;;;;;;;5027721;28;20648;-75
2022/08/25 12:07:05;;;;;;;19.23;7.17;;;;;;;;;;5029327;28;20188;-76
2022/08/25 12:09:33;;;;;;;21.30;7.57;;;;;;;;;;5030215;28;20593;-75
2022/08/25 12:12:20;;;;;;;21.83;7.37;;;;;;;;;;5011053;28;20243;-77
2022/08/25 12:14:47;;;;;;;16.03;7.00;;;;;;;;;;5030094;28;20187;-75
2022/08/25 12:17:19;;;;;;;19.17;7.40;;;;;;;;;;5027967;28;20214;-68
2022/08/25 12:19:48;;;;;;;20.90;7.23;;;;;;;;;;5007843;28;20180;-69
2022/08/25 12:22:15;;;;;;;17.87;6.77;;;;;;;;;;5027791;28;20223;-68
2022/08/25 12:24:42;;;;;;;17.60;7.00;;;;;;;;;;5030110;28;20282;-68
2022/08/25 12:27:25;;;;;;;21.13;7.67;;;;;;;;;;5028197;28;20377;-68
2022/08/25 12:29:59;;;;;;;21.20;7.13;;;;;;;;;;5027262;28;20407;-68
2022/08/25 12:32:32;;;;;;;21.90;7.73;;;;;;;;;;5023657;28;20229;-69
2022/08/25 12:35:12;;;;;;;20.03;6.97;;;;;;;;;;5027123;28;20847;-68
2022/08/25 12:37:52;;;;;;;18.40;7.00;;;;;;;;;;5027393;28;20200;-68
2022/08/25 12:40:27;;;;;;;19.23;7.10;;;;;;;;;;5024299;28;20195;-68
2022/08/25 12:43:05;;;;;;;17.27;6.70;;;;;;;;;;5028481;28;20195;-68
2022/08/25 12:45:37;;;;;;;18.63;6.90;;;;;;;;;;5023782;28;20552;-67
2022/08/25 12:48:24;;;;;;;22.90;7.70;;;;;;;;;;5023616;28;20588;-68
2022/08/25 12:50:58;;;;;;;21.50;7.80;;;;;;;;;;4997821;28;20215;-66
2022/08/25 12:53:41;;;;;;;21.60;7.87;;;;;;;;;;5018565;28;20663;-66
2022/08/25 12:56:18;;;;;;;27.87;8.63;;;;;;;;;;5028421;28;20207;-68
2022/08/25 12:58:48;;;;;;;16.03;7.83;;;;;;;;;;5011338;28;20202;-67
2022/08/25 13:01:31;;;;;;;21.90;8.27;;;;;;;;;;5012367;28;20227;-67
2022/08/25 13:04:02;;;;;;;24.23;8.20;;;;;;;;;;5000022;28;20190;-72
2022/08/25 13:06:54;;;;;;;24.83;9.03;;;;;;;;;;5023663;28;20191;-67
2022/08/25 13:09:30;;;;;;;24.47;9.67;;;;;;;;;;4983248;28;20263;-69
2022/08/25 13:12:04;;;;;;;22.70;8.97;;;;;;;;;;5028213;28;20182;-75
2022/08/25 13:14:36;;;;;;;19.17;8.60;;;;;;;;;;5025980;28;20226;-80
2022/08/25 13:17:05;;;;;;;21.97;9.63;;;;;;;;;;5026002;28;20202;-77
2022/08/25 13:19:35;;;;;;;18.47;8.80;;;;;;;;;;5016836;28;20299;-74
2022/08/25 13:22:03;;;;;;;23.43;9.57;;;;;;;;;;5034724;28;20283;-81
2022/08/25 13:24:35;;;;;;;19.60;8.87;;;;;;;;;;5005693;28;20900;-81
2022/08/25 13:27:08;;;;;;;19.67;8.77;;;;;;;;;;5043061;28;20198;-81
2022/08/25 13:29:47;;;;;;;24.23;9.33;;;;;;;;;;5013186;28;20217;-81
2022/08/25 13:32:17;;;;;;;25.73;8.33;;;;;;;;;;5021414;28;20229;-81
2022/08/25 13:34:47;;;;;;;22.20;8.90;;;;;;;;;;5045135;28;20606;-81
2022/08/25 13:37:46;;;;;;;22.40;8.40;;;;;;;;;;5027959;28;20642;-73
2022/08/25 13:40:20;;;;;;;17.80;8.20;;;;;;;;;;5034543;28;20276;-74
2022/08/25 13:43:07;;;;;;;18.97;7.67;;;;;;;;;;5044712;28;20296;-76
2022/08/25 13:45:43;;;;;;;24.70;8.03;;;;;;;;;;5046029;28;20188;-75
2022/08/25 13:48:11;;;;;;;18.90;7.57;;;;;;;;;;5024653;28;20738;-75
2022/08/25 13:50:50;;;;;;;23.67;8.87;;;;;;;;;;5029645;28;20211;-75
2022/08/25 13:53:36;;;;;;;15.47;7.93;;;;;;;;;;5038286;28;20251;-72
2022/08/25 13:56:04;;;;;;;18.97;8.13;;;;;;;;;;5029527;28;20197;-76
2022/08/25 13:58:54;;;;;;;24.33;8.27;;;;;;;;;;5045634;28;20194;-75
2022/08/25 14:01:33;;;;;;;21.50;8.63;;;;;;;;;;5041156;28;20234;-77
2022/08/25 14:04:24;;;;;;;21.87;8.60;;;;;;;;;;5010973;28;20581;-74
2022/08/25 14:07:11;;;;;;;23.00;8.07;;;;;;;;;;5043709;28;20174;-76
2022/08/25 14:09:39;;;;;;;18.63;8.20;;;;;;;;;;5043739;28;20212;-77
2022/08/25 14:12:07;;;;;;;20.03;8.33;;;;;;;;;;5021793;28;20205;-75
2022/08/25 14:14:35;;;;;;;16.57;8.07;;;;;;;;;;5022189;28;20940;-73
2022/08/25 14:17:06;;;;;;;18.00;7.63;;;;;;;;;;5035714;28;20196;-77
2022/08/25 14:19:54;;;;;;;20.40;7.43;;;;;;;;;;5036620;28;20650;-75
2022/08/25 14:22:21;;;;;;;22.57;7.90;;;;;;;;;;5036214;28;20360;-75
2022/08/25 14:24:48;;;;;;;25.37;8.33;;;;;;;;;;5037213;28;20226;-76
2022/08/25 14:27:15;;;;;;;24.20;9.00;;;;;;;;;;5037530;28;20199;-78
2022/08/25 14:29:45;;;;;;;19.03;8.17;;;;;;;;;;5040065;28;20207;-75
2022/08/25 14:32:24;;;;;;;19.23;7.80;;;;;;;;;;5039205;28;20194;-76
2022/08/25 14:34:52;;;;;;;22.13;8.00;;;;;;;;;;5022392;28;20197;-76
2022/08/25 14:37:21;;;;;;;18.03;7.70;;;;;;;;;;5022236;28;20200;-79
2022/08/25 14:39:53;;;;;;;20.83;9.10;;;;;;;;;;5038384;28;20201;-78
2022/08/25 14:42:21;;;;;;;20.10;7.87;;;;;;;;;;5024343;28;20929;-77
2022/08/25 14:44:51;;;;;;;19.30;9.00;;;;;;;;;;5038970;28;20202;-76
2022/08/25 14:47:19;;;;;;;18.87;8.30;;;;;;;;;;5038851;28;20917;-75
2022/08/25 14:49:51;;;;;;;18.97;8.60;;;;;;;;;;5021049;28;20189;-75
2022/08/25 14:52:37;;;;;;;21.23;8.40;;;;;;;;;;5038883;28;20182;-81
2022/08/25 14:55:05;;;;;;;19.50;9.43;;;;;;;;;;5036465;28;20215;-73
2022/08/25 14:57:32;;;;;;;27.73;9.47;;;;;;;;;;5021785;28;20195;-70
2022/08/25 15:00:02;;;;;;;18.00;8.40;;;;;;;;;;5024412;28;20213;-71
2022/08/25 15:02:30;;;;;;;19.57;8.40;;;;;;;;;;5026498;28;20216;-71
2022/08/25 15:05:05;;;;;;;17.63;7.83;;;;;;;;;;5040209;28;20336;-71
2022/08/25 15:10:37;;;;;;;21.87;8.43;;;;;;;;;;5030327;28;20187;-64
2022/08/25 15:13:05;;;;;;;19.60;9.07;;;;;;;;;;5040436;28;20194;-67
2022/08/25 15:15:32;;;;;;;17.10;8.37;;;;;;;;;;5037979;28;20218;-72
2022/08/25 15:18:01;;;;;;;20.77;8.80;;;;;;;;;;5019582;28;20202;-70
2022/08/25 15:20:29;;;;;;;21.10;9.03;;;;;;;;;;5020500;28;20195;-70
2022/08/25 15:22:56;;;;;;;23.17;9.50;;;;;;;;;;5039542;28;20214;-70
2022/08/25 15:25:23;;;;;;;19.60;10.00;;;;;;;;;;5035807;28;20208;-72
2022/08/25 15:27:50;;;;;;;23.07;10.43;;;;;;;;;;5007843;28;20200;-71
2022/08/25 15:30:18;;;;;;;17.63;10.17;;;;;;;;;;5036406;28;20695;-69
2022/08/25 15:32:45;;;;;;;21.03;10.87;;;;;;;;;;5037837;28;20292;-69
2022/08/25 15:35:18;;;;;;;24.67;12.03;;;;;;;;;;5048257;28;20181;-69
2022/08/25 15:37:55;;;;;;;24.87;12.13;;;;;;;;;;5031386;28;20203;-69
2022/08/25 15:40:26;;;;;;;24.73;12.37;;;;;;;;;;5048354;28;20186;-69
2022/08/25 15:42:56;;;;;;;24.13;12.37;;;;;;;;;;5022252;28;20281;-69
2022/08/25 15:45:34;;;;;;;22.03;12.80;;;;;;;;;;5034676;28;20198;-69
2022/08/25 15:48:23;;;;;;;25.00;13.10;;;;;;;;;;5036958;28;20218;-68
2022/08/25 15:51:13;;;;;;;25.77;12.03;;;;;;;;;;5045835;28;20187;-69
2022/08/25 15:53:46;;;;;;;28.00;13.27;;;;;;;;;;5042241;28;20210;-70
2022/08/25 15:56:18;;;;;;;21.53;13.60;;;;;;;;;;5027454;28;20233;-71
2022/08/25 15:58:53;;;;;;;26.90;13.50;;;;;;;;;;5050227;28;20198;-72
2022/08/25 16:01:23;;;;;;;28.23;14.03;;;;;;;;;;5047033;28;20707;-72
2022/08/25 16:03:50;;;;;;;23.17;12.47;;;;;;;;;;5036617;28;20285;-71
2022/08/25 16:06:17;;;;;;;22.63;13.20;;;;;;;;;;5015648;28;20194;-71
2022/08/25 16:08:45;;;;;;;28.27;13.47;;;;;;;;;;5029239;28;20281;-72
2022/08/25 16:11:15;;;;;;;27.63;13.90;;;;;;;;;;5048154;28;20191;-71
2022/08/25 16:13:43;;;;;;;24.07;13.33;;;;;;;;;;5031713;28;20237;-71
2022/08/25 16:16:10;;;;;;;23.17;12.93;;;;;;;;;;5031293;28;20860;-72
2022/08/25 16:18:37;;;;;;;23.70;12.30;;;;;;;;;;5041357;28;20194;-71
2022/08/25 16:21:07;;;;;;;23.40;12.10;;;;;;;;;;5045515;28;20264;-71
2022/08/25 16:23:41;;;;;;;20.90;11.80;;;;;;;;;;5043089;28;20241;-71
2022/08/25 16:26:10;;;;;;;23.57;12.10;;;;;;;;;;5049309;28;20190;-72
2022/08/25 16:28:38;;;;;;;25.90;11.10;;;;;;;;;;5034338;28;20294;-71
2022/08/25 16:31:09;;;;;;;22.93;10.83;;;;;;;;;;5047562;28;20363;-72
2022/08/25 16:33:36;;;;;;;23.63;10.60;;;;;;;;;;5031187;28;20638;-71
2022/08/25 16:36:19;;;;;;;21.90;11.10;;;;;;;;;;5031140;28;20187;-72
2022/08/25 16:38:47;;;;;;;25.53;10.73;;;;;;;;;;5027108;28;20690;-72
2022/08/25 16:41:25;;;;;;;23.17;11.53;;;;;;;;;;5041563;28;20228;-72
2022/08/25 16:43:53;;;;;;;27.17;10.60;;;;;;;;;;5047103;28;20190;-73
2022/08/25 16:47:00;;;;;;;24.47;9.20;;;;;;;;;;5028029;28;20252;-72
2022/08/25 16:49:29;;;;;;;22.77;8.70;;;;;;;;;;5046866;28;20206;-72
2022/08/25 16:51:57;;;;;;;21.50;8.40;;;;;;;;;;5047855;28;20238;-72
2022/08/25 16:57:30;;;;;;;21.93;8.20;;;;;;;;;;5040728;28;20218;-70
2022/08/25 16:59:56;;;;;;;15.23;7.70;;;;;;;;;;5049563;28;20202;-69
2022/08/25 17:02:26;;;;;;;19.93;8.33;;;;;;;;;;5031692;28;20215;-71
2022/08/25 17:04:53;;;;;;;21.27;7.90;;;;;;;;;;5048450;28;20670;-69
2022/08/25 17:07:23;;;;;;;17.00;8.50;;;;;;;;;;5049030;28;20342;-70
2022/08/25 17:09:51;;;;;;;21.53;8.70;;;;;;;;;;5048596;28;20276;-70
2022/08/25 17:12:22;;;;;;;20.97;9.10;;;;;;;;;;5047285;28;20190;-70
2022/08/25 17:14:50;;;;;;;22.10;8.83;;;;;;;;;;5031069;28;20200;-69
2022/08/25 17:17:16;;;;;;;20.20;9.60;;;;;;;;;;5046715;28;20189;-69
2022/08/25 17:19:43;;;;;;;22.87;9.53;;;;;;;;;;5015183;28;20511;-70
2022/08/25 17:22:15;;;;;;;24.37;10.00;;;;;;;;;;5031542;28;20227;-69
2022/08/25 17:24:45;;;;;;;32.77;11.70;;;;;;;;;;5046805;28;20215;-68
2022/08/25 17:27:31;;;;;;;27.80;11.67;;;;;;;;;;5004445;28;20179;-69
2022/08/25 17:29:58;;;;;;;27.33;11.03;;;;;;;;;;5035894;28;20219;-69
2022/08/25 17:32:26;;;;;;;28.13;9.77;;;;;;;;;;5012708;28;20195;-72
2022/08/25 17:34:58;;;;;;;25.47;10.17;;;;;;;;;;5031512;28;20557;-77
2022/08/25 17:37:24;;;;;;;32.43;10.20;;;;;;;;;;5003993;28;20249;-72
2022/08/25 17:39:51;;;;;;;24.07;10.30;;;;;;;;;;5035876;28;20218;-74
2022/08/25 17:42:30;;;;;;;32.80;11.63;;;;;;;;;;5023720;28;20326;-77
2022/08/25 17:44:59;;;;;;;22.87;10.67;;;;;;;;;;5031544;28;20211;-75
2022/08/25 17:47:26;;;;;;;26.80;9.50;;;;;;;;;;5030855;28;20194;-72
2022/08/25 17:49:53;;;;;;;27.63;10.37;;;;;;;;;;5022905;28;20228;-75
2022/08/25 17:52:38;;;;;;;24.70;11.60;;;;;;;;;;5014473;28;20558;-76
2022/08/25 17:55:07;;;;;;;24.97;11.53;;;;;;;;;;5026969;28;20183;-75
2022/08/25 17:57:37;;;;;;;21.80;10.87;;;;;;;;;;5029169;28;20196;-75
2022/08/25 18:00:09;;;;;;;28.77;11.40;;;;;;;;;;5012977;28;20191;-75